createdAt,value
2023-05-22T00:00:24.063Z,97681.26
2023-05-22T00:03:13.289Z,97676.08
2023-05-22T00:05:41.396Z,97676.11
2023-05-22T00:08:12.425Z,97674.05
2023-05-22T00:10:42.289Z,97669.72
2023-05-22T00:13:10.234Z,97670.62
2023-05-22T00:15:40.965Z,97671.33
2023-05-22T00:18:09.011Z,97673.25
2023-05-22T00:20:40.901Z,97674.02
2023-05-22T00:23:13.737Z,97674.23
2023-05-22T00:25:44.708Z,97684.71
2023-05-22T00:28:13.428Z,97695.91
2023-05-22T00:30:42.742Z,97700.12
2023-05-22T00:33:12.520Z,97701.03
2023-05-22T00:35:41.898Z,97700.42
2023-05-22T00:38:09.844Z,97697.40
2023-05-22T00:40:38.134Z,97695.16
2023-05-22T00:43:09.535Z,97697.88
2023-05-22T00:45:37.718Z,97700.02
2023-05-22T00:48:09.653Z,97695.04
2023-05-22T00:50:37.854Z,97694.62
2023-05-22T00:53:07.249Z,97688.27
2023-05-22T00:55:35.822Z,97692.28
2023-05-22T00:58:07.923Z,97688.75
2023-05-22T01:00:37.100Z,97686.41
2023-05-22T01:03:09.850Z,97684.54
2023-05-22T01:05:38.258Z,97683.85
2023-05-22T01:08:08.143Z,97681.02
2023-05-22T01:10:37.443Z,97682.09
2023-05-22T01:13:12.365Z,97676.94
2023-05-22T01:16:18.985Z,97679.09
2023-05-22T01:18:56.176Z,97674.89
2023-05-22T01:21:37.357Z,97676.55
2023-05-22T01:24:18.495Z,97676.67
2023-05-22T01:27:19.465Z,97675.65
2023-05-22T01:30:13.993Z,97674.02
2023-05-22T01:32:43.790Z,97672.17
2023-05-22T01:35:11.803Z,97673.23
2023-05-22T01:37:42.299Z,97670.77
2023-05-22T01:40:12.314Z,97668.29
2023-05-22T01:42:42.451Z,97666.66
2023-05-22T01:45:13.941Z,97661.79
2023-05-22T01:47:43.857Z,97664.19
2023-05-22T01:50:12.129Z,97660.52
2023-05-22T01:53:15.934Z,97661.55
2023-05-22T01:55:48.415Z,97661.16
2023-05-22T01:58:29.308Z,97658.48
2023-05-22T02:01:00.908Z,97657.94
2023-05-22T02:03:32.577Z,97658.15
2023-05-22T02:06:04.967Z,97658.94
2023-05-22T02:08:34.336Z,97659.92
2023-05-22T02:11:04.393Z,97658.89
2023-05-22T02:13:32.536Z,97660.59
2023-05-22T02:16:04.297Z,97658.73
2023-05-22T02:18:32.579Z,97659.04
2023-05-22T02:21:03.381Z,97656.08
2023-05-22T02:23:32.482Z,97655.61
2023-05-22T02:26:02.003Z,97653.10
2023-05-22T02:28:29.934Z,97652.60
2023-05-22T02:30:58.229Z,97652.99
2023-05-22T02:33:30.025Z,97656.95
2023-05-22T02:35:58.542Z,97655.63
2023-05-22T02:38:27.903Z,97656.21
2023-05-22T02:40:56.405Z,97654.44
2023-05-22T02:43:27.290Z,97652.59
2023-05-22T02:45:55.225Z,97655.84
2023-05-22T02:48:25.793Z,97654.36
2023-05-22T02:50:53.826Z,97653.50
2023-05-22T02:53:24.332Z,97655.15
2023-05-22T02:55:53.373Z,97652.50
2023-05-22T02:58:25.229Z,97650.14
2023-05-22T03:00:53.830Z,97645.98
2023-05-22T03:03:25.221Z,97644.45
2023-05-22T03:05:58.598Z,97642.71
2023-05-22T03:08:29.182Z,97644.81
2023-05-22T03:10:57.843Z,97644.13
2023-05-22T03:13:27.178Z,97642.41
2023-05-22T03:15:55.206Z,97644.21
2023-05-22T03:18:27.610Z,97644.35
2023-05-22T03:20:56.350Z,97640.55
2023-05-22T03:23:25.729Z,97642.73
2023-05-22T03:25:54.344Z,97638.21
2023-05-22T03:28:24.060Z,97640.11
2023-05-22T03:30:52.686Z,97637.35
2023-05-22T03:33:27.823Z,97639.20
2023-05-22T03:35:56.549Z,97638.02
2023-05-22T03:38:26.256Z,97638.67
2023-05-22T03:40:54.924Z,97635.17
2023-05-22T03:43:24.213Z,97639.46
2023-05-22T03:45:52.472Z,97636.83
2023-05-22T03:48:22.682Z,97639.13
2023-05-22T03:50:53.030Z,97637.20
2023-05-22T03:53:22.255Z,97640.58
2023-05-22T03:55:50.160Z,97637.33
2023-05-22T03:58:18.069Z,97635.35
2023-05-22T04:00:47.533Z,97636.64
2023-05-22T04:03:19.648Z,97635.80
2023-05-22T04:05:49.156Z,97638.73
2023-05-22T04:08:17.773Z,97639.64
2023-05-22T04:10:48.631Z,97641.90
2023-05-22T04:13:16.905Z,97645.20
2023-05-22T04:15:47.219Z,97643.80
2023-05-22T04:18:15.650Z,97641.86
2023-05-22T04:20:46.000Z,97642.81
2023-05-22T04:23:14.049Z,97642.52
2023-05-22T04:25:44.799Z,97643.59
2023-05-22T04:28:13.153Z,97642.18
2023-05-22T04:30:44.241Z,97642.14
2023-05-22T04:33:12.839Z,97643.77
2023-05-22T04:35:42.502Z,97648.98
2023-05-22T04:38:11.015Z,97646.87
2023-05-22T04:40:41.615Z,97646.73
2023-05-22T04:43:09.839Z,97647.79
2023-05-22T04:45:42.432Z,97653.17
2023-05-22T04:48:12.265Z,97653.81
2023-05-22T04:50:41.840Z,97658.73
2023-05-22T04:53:10.105Z,97666.00
2023-05-22T04:55:40.027Z,97661.86
2023-05-22T04:58:08.686Z,97665.33
2023-05-22T05:00:39.160Z,97666.35
2023-05-22T05:03:08.518Z,97667.64
2023-05-22T05:05:38.165Z,97665.17
2023-05-22T05:08:06.192Z,97667.02
2023-05-22T05:10:34.963Z,97671.52
2023-05-22T05:13:04.685Z,97667.39
2023-05-22T05:15:34.162Z,97665.41
2023-05-22T05:18:05.219Z,97662.83
2023-05-22T05:20:33.312Z,97668.42
2023-05-22T05:23:04.175Z,97664.39
2023-05-22T05:25:32.309Z,97662.58
2023-05-22T05:28:02.545Z,97659.02
2023-05-22T05:30:32.212Z,97659.02
2023-05-22T05:33:33.919Z,97655.40
2023-05-22T05:36:16.524Z,97655.79
2023-05-22T05:38:46.214Z,97656.64
2023-05-22T05:41:16.238Z,97660.77
2023-05-22T05:43:45.898Z,97658.89
2023-05-22T05:46:15.256Z,97660.73
2023-05-22T05:48:44.064Z,97659.91
2023-05-22T05:51:13.515Z,97663.13
2023-05-22T05:53:43.651Z,97661.55
2023-05-22T05:56:13.479Z,97666.52
2023-05-22T05:58:42.167Z,97669.66
2023-05-22T06:01:44.758Z,97672.39
2023-05-22T06:04:19.172Z,97675.14
2023-05-22T06:06:49.667Z,97675.70
2023-05-22T06:09:22.527Z,97680.50
2023-05-22T06:12:24.075Z,97681.77
2023-05-22T06:14:52.177Z,97684.92
2023-05-22T06:17:22.876Z,97684.74
2023-05-22T06:19:51.019Z,97684.92
2023-05-22T06:22:21.299Z,97683.81
2023-05-22T06:24:50.373Z,97686.81
2023-05-22T06:27:27.410Z,97685.35
2023-05-22T06:29:58.083Z,97689.61
2023-05-22T06:32:28.802Z,97690.21
2023-05-22T06:34:58.506Z,97694.35
2023-05-22T06:37:26.696Z,97693.59
2023-05-22T06:39:57.056Z,97693.50
2023-05-22T06:43:01.582Z,97691.70
2023-05-22T06:45:49.447Z,97694.08
2023-05-22T06:48:35.162Z,97687.45
2023-05-22T06:51:15.098Z,97689.73
2023-05-22T06:53:43.615Z,97690.52
2023-05-22T06:56:16.133Z,97692.70
2023-05-22T06:59:06.236Z,97693.73
2023-05-22T07:01:50.768Z,97692.52
2023-05-22T07:04:23.547Z,97696.41
2023-05-22T07:06:59.672Z,97696.43
2023-05-22T07:09:27.694Z,97696.86
2023-05-22T07:11:58.078Z,97696.10
2023-05-22T07:14:26.022Z,97697.13
2023-05-22T07:16:54.168Z,97696.07
2023-05-22T07:19:28.245Z,97695.36
2023-05-22T07:22:00.254Z,97699.92
2023-05-22T07:24:30.373Z,97699.56
2023-05-22T07:26:58.453Z,97700.02
2023-05-22T07:29:28.144Z,97697.36
2023-05-22T07:31:56.565Z,97699.27
2023-05-22T07:34:34.140Z,97698.61
2023-05-22T07:37:09.154Z,97697.77
2023-05-22T07:39:37.176Z,97695.05
2023-05-22T07:42:08.102Z,97694.44
2023-05-22T07:44:43.571Z,97692.84
2023-05-22T07:47:11.945Z,97692.23
2023-05-22T07:49:42.518Z,97690.81
2023-05-22T07:52:12.075Z,97689.39
2023-05-22T07:54:42.421Z,97693.02
2023-05-22T07:57:12.886Z,97694.15
2023-05-22T07:59:43.806Z,97694.31
2023-05-22T08:02:11.935Z,97698.64
2023-05-22T08:04:41.265Z,97701.67
2023-05-22T08:07:09.392Z,97700.23
2023-05-22T08:09:40.238Z,97704.52
2023-05-22T08:12:08.557Z,97704.67
2023-05-22T08:14:38.270Z,97703.07
2023-05-22T08:17:06.777Z,97700.52
2023-05-22T08:19:37.107Z,97698.52
2023-05-22T08:22:05.278Z,97703.11
2023-05-22T08:24:35.963Z,97704.02
2023-05-22T08:27:04.563Z,97704.59
2023-05-22T08:29:33.827Z,97700.91
2023-05-22T08:32:01.833Z,97698.48
2023-05-22T08:34:29.874Z,97694.31
2023-05-22T08:36:59.292Z,97693.67
2023-05-22T08:39:27.691Z,97694.08
2023-05-22T08:41:56.937Z,97696.33
2023-05-22T08:44:25.539Z,97696.04
2023-05-22T08:46:59.809Z,97693.17
2023-05-22T08:49:28.360Z,97693.96
2023-05-22T08:52:00.934Z,97692.64
2023-05-22T08:54:29.002Z,97689.55
2023-05-22T08:56:58.329Z,97688.24
2023-05-22T08:59:26.293Z,97690.30
2023-05-22T09:01:54.258Z,97685.30
2023-05-22T09:04:24.280Z,97687.11
2023-05-22T09:06:53.233Z,97680.15
2023-05-22T09:09:22.662Z,97681.29
2023-05-22T09:11:50.959Z,97678.42
2023-05-22T09:14:21.172Z,97674.44
2023-05-22T09:16:50.034Z,97682.34
2023-05-22T09:19:19.300Z,97680.10
2023-05-22T09:21:51.418Z,97681.41
2023-05-22T09:24:20.810Z,97683.28
2023-05-22T09:26:48.990Z,97681.30
2023-05-22T09:29:17.025Z,97674.55
2023-05-22T09:31:47.069Z,97673.73
2023-05-22T09:34:15.856Z,97675.04
2023-05-22T09:36:45.540Z,97676.55
2023-05-22T09:39:13.869Z,97671.48
2023-05-22T09:41:44.287Z,97671.05
2023-05-22T09:44:15.433Z,97667.77
2023-05-22T09:46:45.994Z,97665.48
2023-05-22T09:49:16.456Z,97665.30
2023-05-22T09:51:49.474Z,97662.28
2023-05-22T09:54:20.395Z,97662.14
2023-05-22T09:56:52.491Z,97657.91
2023-05-22T09:59:22.540Z,97659.98
2023-05-22T10:01:52.319Z,97657.16
2023-05-22T10:04:20.440Z,97654.58
2023-05-22T10:06:51.845Z,97654.33
2023-05-22T10:09:25.078Z,97651.89
2023-05-22T10:11:55.598Z,97652.17
2023-05-22T10:14:24.104Z,97652.39
2023-05-22T10:16:53.825Z,97645.17
2023-05-22T10:19:27.221Z,97645.82
2023-05-22T10:21:57.448Z,97647.61
2023-05-22T10:24:25.372Z,97642.95
2023-05-22T10:26:55.742Z,97644.61
2023-05-22T10:30:06.193Z,97646.22
2023-05-22T10:33:18.264Z,97646.48
2023-05-22T10:36:02.727Z,97648.91
2023-05-22T10:38:54.028Z,97653.98
2023-05-22T10:41:23.798Z,97651.59
2023-05-22T10:43:51.936Z,97655.02
2023-05-22T10:46:22.286Z,97657.96
2023-05-22T10:48:53.919Z,97669.60
2023-05-22T10:51:23.326Z,97681.75
2023-05-22T10:53:58.764Z,97688.61
2023-05-22T10:56:35.492Z,97706.43
2023-05-22T10:59:06.052Z,97721.51
2023-05-22T11:01:38.684Z,97731.30
2023-05-22T11:04:19.213Z,97748.58
2023-05-22T11:07:04.563Z,97751.46
2023-05-22T11:09:43.403Z,97718.96
2023-05-22T11:12:25.214Z,97695.45
2023-05-22T11:15:03.203Z,97684.64
2023-05-22T11:17:33.999Z,97671.39
2023-05-22T11:20:18.577Z,97655.89
2023-05-22T11:22:56.127Z,97650.84
2023-05-22T11:25:26.598Z,97642.82
2023-05-22T11:27:54.961Z,97638.69
2023-05-22T11:30:28.574Z,97635.98
2023-05-22T11:32:58.260Z,97634.08
2023-05-22T11:35:28.271Z,97634.33
2023-05-22T11:37:56.687Z,97639.48
2023-05-22T11:40:29.391Z,97645.88
2023-05-22T11:42:57.393Z,97648.30
2023-05-22T11:45:26.992Z,97655.33
2023-05-22T11:47:54.960Z,97656.69
2023-05-22T11:50:40.882Z,97655.70
2023-05-22T11:53:12.663Z,97651.77
2023-05-22T11:55:42.615Z,97651.92
2023-05-22T11:58:12.006Z,97653.52
2023-05-22T12:00:40.164Z,97652.25
2023-05-22T12:03:09.713Z,97652.05
2023-05-22T12:05:38.368Z,97649.52
2023-05-22T12:08:07.979Z,97649.69
2023-05-22T12:10:36.389Z,97646.34
2023-05-22T12:13:06.707Z,97645.00
2023-05-22T12:15:34.615Z,97642.82
2023-05-22T12:18:03.093Z,97644.96
2023-05-22T12:20:32.570Z,97647.70
2023-05-22T12:23:00.684Z,97647.98
2023-05-22T12:25:34.129Z,97646.80
2023-05-22T12:28:03.403Z,97648.52
2023-05-22T12:30:40.119Z,97651.69
2023-05-22T12:33:14.111Z,97649.50
2023-05-22T12:35:42.494Z,97644.16
2023-05-22T12:38:13.617Z,97639.54
2023-05-22T12:40:41.880Z,97638.16
2023-05-22T12:43:11.187Z,97639.39
2023-05-22T12:45:42.285Z,97638.77
2023-05-22T12:48:12.064Z,97637.25
2023-05-22T12:50:41.062Z,97634.38
2023-05-22T12:53:10.656Z,97631.80
2023-05-22T12:55:39.246Z,97631.09
2023-05-22T12:58:08.438Z,97631.05
2023-05-22T13:00:36.700Z,97624.25
2023-05-22T13:03:07.979Z,97622.42
2023-05-22T13:05:36.028Z,97620.19
2023-05-22T13:08:06.576Z,97612.77
2023-05-22T13:10:35.761Z,97614.23
2023-05-22T13:13:04.943Z,97612.52
2023-05-22T13:15:33.166Z,97609.40
2023-05-22T13:18:04.341Z,97602.56
2023-05-22T13:20:32.743Z,97600.50
2023-05-22T13:23:03.450Z,97595.52
2023-05-22T13:25:31.457Z,97594.17
2023-05-22T13:28:03.458Z,97593.70
2023-05-22T13:30:32.260Z,97592.10
2023-05-22T13:33:01.550Z,97592.80
2023-05-22T13:35:29.565Z,97589.37
2023-05-22T13:37:59.841Z,97592.45
2023-05-22T13:40:27.916Z,97582.70
2023-05-22T13:42:58.242Z,97580.01
2023-05-22T13:45:27.747Z,97582.02
2023-05-22T13:47:57.258Z,97583.26
2023-05-22T13:50:25.656Z,97579.62
2023-05-22T13:52:56.604Z,97580.02
2023-05-22T13:55:24.580Z,97577.66
2023-05-22T13:57:54.836Z,97578.67
2023-05-22T14:00:22.839Z,97576.44
2023-05-22T14:02:51.264Z,97580.19
2023-05-22T14:05:20.655Z,97575.95
2023-05-22T14:07:48.641Z,97577.85
2023-05-22T14:10:17.123Z,97575.66
2023-05-22T14:12:46.457Z,97569.39
2023-05-22T14:15:16.120Z,97565.95
2023-05-22T14:17:45.590Z,97566.13
2023-05-22T14:20:13.663Z,97566.02
2023-05-22T14:22:56.583Z,97561.04
2023-05-22T14:25:26.892Z,97563.58
2023-05-22T14:27:54.932Z,97561.42
2023-05-22T14:30:25.459Z,97563.36
2023-05-22T14:32:53.490Z,97563.23
2023-05-22T14:35:24.110Z,97560.00
2023-05-22T14:37:52.230Z,97557.00
2023-05-22T14:40:22.212Z,97549.72
2023-05-22T14:42:51.314Z,97549.55
2023-05-22T14:45:22.711Z,97547.55
2023-05-22T14:47:51.294Z,97545.14
2023-05-22T14:50:21.106Z,97541.27
2023-05-22T14:52:49.598Z,97537.31
2023-05-22T14:55:19.545Z,97529.41
2023-05-22T14:57:47.529Z,97525.73
2023-05-22T15:00:18.111Z,97524.83
2023-05-22T15:02:46.296Z,97524.15
2023-05-22T15:05:15.972Z,97522.95
2023-05-22T15:07:45.759Z,97521.73
2023-05-22T15:10:16.689Z,97520.23
2023-05-22T15:12:44.723Z,97514.54
2023-05-22T15:15:15.009Z,97515.49
2023-05-22T15:17:43.224Z,97517.05
2023-05-22T15:20:11.635Z,97522.44
2023-05-22T15:22:41.286Z,97525.24
2023-05-22T15:25:11.809Z,97527.55
2023-05-22T15:27:41.908Z,97527.11
2023-05-22T15:30:10.781Z,97530.54
2023-05-22T15:32:40.188Z,97529.35
2023-05-22T15:35:09.317Z,97527.95
2023-05-22T15:37:38.661Z,97522.25
2023-05-22T15:40:09.940Z,97528.10
2023-05-22T15:42:39.203Z,97523.92
2023-05-22T15:45:07.831Z,97524.20
2023-05-22T15:47:38.639Z,97521.68
2023-05-22T15:50:07.126Z,97521.70
2023-05-22T15:52:38.386Z,97521.89
2023-05-22T15:55:06.747Z,97522.61
2023-05-22T15:57:36.088Z,97522.29
2023-05-22T16:00:04.958Z,97526.15
2023-05-22T16:02:34.729Z,97526.00
2023-05-22T16:05:03.152Z,97522.89
2023-05-22T16:07:33.458Z,97522.50
2023-05-22T16:10:01.545Z,97521.16
2023-05-22T16:12:29.655Z,97521.75
2023-05-22T16:15:00.692Z,97521.91
2023-05-22T16:17:29.516Z,97526.70
2023-05-22T16:19:58.931Z,97520.35
2023-05-22T16:22:39.948Z,97523.43
2023-05-22T16:25:10.179Z,97524.97
2023-05-22T16:27:39.134Z,97523.77
2023-05-22T16:30:09.065Z,97518.19
2023-05-22T16:32:37.294Z,97522.50
2023-05-22T16:35:07.973Z,97525.44
2023-05-22T16:37:36.140Z,97527.82
2023-05-22T16:40:09.375Z,97528.61
2023-05-22T16:42:38.404Z,97530.99
2023-05-22T16:45:08.148Z,97530.89
2023-05-22T16:47:36.282Z,97533.02
2023-05-22T16:50:07.483Z,97535.63
2023-05-22T16:52:36.675Z,97539.45
2023-05-22T16:55:06.826Z,97542.41
2023-05-22T16:57:34.757Z,97542.26
2023-05-22T17:00:06.932Z,97544.32
2023-05-22T17:02:35.118Z,97547.48
2023-05-22T17:05:05.106Z,97548.02
2023-05-22T17:07:33.625Z,97555.48
2023-05-22T17:10:04.149Z,97555.27
2023-05-22T17:12:32.360Z,97561.27
2023-05-22T17:15:02.184Z,97563.13
2023-05-22T17:17:30.378Z,97564.40
2023-05-22T17:20:01.628Z,97568.64
2023-05-22T17:22:29.567Z,97567.25
2023-05-22T17:24:59.392Z,97569.11
2023-05-22T17:27:35.418Z,97570.02
2023-05-22T17:30:07.004Z,97572.05
2023-05-22T17:32:35.624Z,97570.00
2023-05-22T17:35:07.093Z,97573.27
2023-05-22T17:37:35.355Z,97576.06
2023-05-22T17:40:05.305Z,97578.22
2023-05-22T17:42:33.543Z,97578.70
2023-05-22T17:45:03.995Z,97577.98
2023-05-22T17:47:32.108Z,97580.07
2023-05-22T17:50:01.876Z,97583.32
2023-05-22T17:52:30.070Z,97593.05
2023-05-22T17:55:00.438Z,97595.08
2023-05-22T17:57:28.483Z,97596.27
2023-05-22T17:59:56.405Z,97594.10
2023-05-22T18:02:26.990Z,97594.98
2023-05-22T18:04:55.221Z,97595.38
2023-05-22T18:07:24.894Z,97598.27
2023-05-22T18:09:52.843Z,97599.55
2023-05-22T18:12:31.347Z,97600.99
2023-05-22T18:15:01.492Z,97602.32
2023-05-22T18:17:29.755Z,97603.39
2023-05-22T18:20:00.860Z,97605.79
2023-05-22T18:22:28.893Z,97607.89
2023-05-22T18:24:59.154Z,97614.54
2023-05-22T18:27:27.758Z,97618.14
2023-05-22T18:29:58.324Z,97618.77
2023-05-22T18:32:26.362Z,97623.05
2023-05-22T18:34:58.751Z,97624.59
2023-05-22T18:37:26.958Z,97630.07
2023-05-22T18:39:56.295Z,97632.36
2023-05-22T18:42:24.566Z,97635.16
2023-05-22T18:44:55.002Z,97640.69
2023-05-22T18:47:22.919Z,97640.06
2023-05-22T18:49:51.118Z,97645.52
2023-05-22T18:52:20.624Z,97647.42
2023-05-22T18:54:49.445Z,97650.38
2023-05-22T18:57:19.003Z,97651.09
2023-05-22T18:59:47.286Z,97648.78
2023-05-22T19:02:21.189Z,97654.52
2023-05-22T19:04:51.036Z,97659.89
2023-05-22T19:07:21.366Z,97664.34
2023-05-22T19:09:49.767Z,97664.02
2023-05-22T19:12:19.269Z,97664.50
2023-05-22T19:14:48.440Z,97666.06
2023-05-22T19:17:17.862Z,97664.39
2023-05-22T19:19:46.631Z,97673.46
2023-05-22T19:22:18.091Z,97678.70
2023-05-22T19:24:46.759Z,97677.84
2023-05-22T19:27:16.134Z,97681.47
2023-05-22T19:29:44.087Z,97681.59
2023-05-22T19:32:14.444Z,97679.55
2023-05-22T19:34:42.538Z,97682.29
2023-05-22T19:37:13.314Z,97683.71
2023-05-22T19:39:41.348Z,97684.95
2023-05-22T19:42:12.327Z,97677.23
2023-05-22T19:44:40.836Z,97673.31
2023-05-22T19:47:11.259Z,97675.30
2023-05-22T19:49:39.271Z,97674.59
2023-05-22T19:52:08.976Z,97674.80
2023-05-22T19:54:37.100Z,97681.23
2023-05-22T19:57:07.524Z,97679.02
2023-05-22T19:59:36.767Z,97682.48
2023-05-22T20:02:06.510Z,97682.69
2023-05-22T20:04:34.568Z,97684.46
2023-05-22T20:07:05.817Z,97685.35
2023-05-22T20:09:34.126Z,97690.89
2023-05-22T20:12:03.861Z,97709.40
2023-05-22T20:14:31.943Z,97706.90
2023-05-22T20:17:02.931Z,97699.52
2023-05-22T20:19:32.674Z,97700.27
2023-05-22T20:22:02.227Z,97700.16
2023-05-22T20:24:31.043Z,97702.02
2023-05-22T20:27:04.819Z,97701.77
2023-05-22T20:29:32.898Z,97701.77
2023-05-22T20:32:02.199Z,97701.50
2023-05-22T20:34:30.271Z,97703.88
2023-05-22T20:37:00.741Z,97705.15
2023-05-22T20:39:29.492Z,97704.25
2023-05-22T20:42:02.765Z,97706.31
2023-05-22T20:44:31.858Z,97707.95
2023-05-22T20:47:01.352Z,97705.46
2023-05-22T20:49:30.004Z,97706.83
2023-05-22T20:52:00.084Z,97705.65
2023-05-22T20:54:34.464Z,97710.27
2023-05-22T20:57:04.281Z,97711.21
2023-05-22T20:59:32.338Z,97713.30
2023-05-22T21:02:02.019Z,97711.25
2023-05-22T21:04:30.297Z,97717.39
2023-05-22T21:07:00.769Z,97715.88
2023-05-22T21:09:28.756Z,97717.82
2023-05-22T21:11:59.227Z,97716.84
2023-05-22T21:14:27.220Z,97718.73
2023-05-22T21:16:55.371Z,97720.11
2023-05-22T21:19:24.718Z,97718.98
2023-05-22T21:21:52.797Z,97721.50
2023-05-22T21:24:23.036Z,97723.48
2023-05-22T21:26:51.166Z,97723.14
2023-05-22T21:29:21.740Z,97722.09
2023-05-22T21:31:50.033Z,97721.50
2023-05-22T21:34:20.452Z,97720.31
2023-05-22T21:36:50.040Z,97721.55
2023-05-22T21:39:19.284Z,97717.03
2023-05-22T21:41:49.776Z,97713.55
2023-05-22T21:44:19.278Z,97709.76
2023-05-22T21:46:47.659Z,97710.30
2023-05-22T21:49:18.110Z,97706.39
2023-05-22T21:51:46.211Z,97707.91
2023-05-22T21:54:15.839Z,97704.10
2023-05-22T21:56:43.915Z,97705.27
2023-05-22T21:59:12.048Z,97702.75
2023-05-22T22:01:41.396Z,97700.23
2023-05-22T22:04:09.637Z,97703.63
2023-05-22T22:06:39.096Z,97706.79
2023-05-22T22:09:07.418Z,97705.66
2023-05-22T22:11:38.247Z,97703.48
2023-05-22T22:14:07.465Z,97709.46
2023-05-22T22:16:36.830Z,97704.41
2023-05-22T22:19:05.076Z,97709.20
2023-05-22T22:21:34.412Z,97708.88
2023-05-22T22:24:02.396Z,97705.49
2023-05-22T22:26:31.268Z,97701.48
2023-05-22T22:29:00.597Z,97695.08
2023-05-22T22:31:28.667Z,97692.63
2023-05-22T22:33:59.225Z,97682.70
2023-05-22T22:36:27.379Z,97680.99
2023-05-22T22:38:57.601Z,97677.19
2023-05-22T22:41:25.996Z,97671.82
2023-05-22T22:43:56.718Z,97670.31
2023-05-22T22:46:24.806Z,97671.45
2023-05-22T22:48:55.638Z,97669.52
2023-05-22T22:51:24.820Z,97668.85
2023-05-22T22:53:54.130Z,97665.23
2023-05-22T22:56:24.164Z,97657.52
2023-05-22T22:58:53.478Z,97657.92
2023-05-22T23:01:22.164Z,97652.40
2023-05-22T23:03:51.774Z,97651.00
2023-05-22T23:06:20.002Z,97649.66
2023-05-22T23:08:50.206Z,97649.73
2023-05-22T23:11:18.521Z,97643.73
2023-05-22T23:13:48.981Z,97641.95
2023-05-22T23:16:17.140Z,97640.62
2023-05-22T23:18:47.427Z,97646.07
2023-05-22T23:21:15.573Z,97644.96
2023-05-22T23:23:43.494Z,97642.16
2023-05-22T23:26:13.236Z,97633.30
2023-05-22T23:28:41.342Z,97633.90
2023-05-22T23:31:14.258Z,97628.52
2023-05-22T23:33:42.856Z,97624.46
2023-05-22T23:36:12.330Z,97620.06
2023-05-22T23:38:41.400Z,97618.44
2023-05-22T23:41:11.835Z,97619.84
2023-05-22T23:43:39.838Z,97622.30
2023-05-22T23:46:13.273Z,97623.38
2023-05-22T23:48:41.842Z,97617.91
2023-05-22T23:51:14.435Z,97618.67
2023-05-22T23:53:42.751Z,97614.48
2023-05-22T23:56:12.081Z,97613.73
2023-05-22T23:58:40.141Z,97615.99
